Time;durP1;ratioP1;P1;durP2;ratioP2;P2;SDS_P1;SDS_P2;PMS_P1;PMS_P2;Temp;Humidity;BMP_temperature;BMP_pressure;BME280_temperature;BME280_humidity;BME280_pressure;Samples;Min_cycle;Max_cycle;Signal;HPM_P1;HPM_P2
2023/02/07 00:00:45;;;;;;;18.38;7.38;;;0.10;99.90;;;;;;4936666;29;20059;-95
2023/02/07 00:03:11;;;;;;;19.30;7.97;;;0.10;99.90;;;;;;4937291;29;20024;-94
2023/02/07 00:05:37;;;;;;;20.60;7.55;;;0.10;99.90;;;;;;4941662;29;20520;-94
2023/02/07 00:08:04;;;;;;;20.60;7.57;;;0.00;99.90;;;;;;4945472;29;20035;-94
2023/02/07 00:10:30;;;;;;;19.10;8.30;;;0.00;99.90;;;;;;4943595;29;20024;-94
2023/02/07 00:12:56;;;;;;;17.42;8.23;;;0.00;99.90;;;;;;4939602;29;20039;-93
2023/02/07 00:15:21;;;;;;;20.33;8.23;;;0.00;99.90;;;;;;4938503;29;20038;-94
2023/02/07 00:17:47;;;;;;;18.83;7.43;;;-0.10;99.90;;;;;;4937350;29;20510;-94
2023/02/07 00:20:13;;;;;;;27.08;9.60;;;-0.10;99.90;;;;;;4938804;29;20031;-94
2023/02/07 00:22:38;;;;;;;17.48;7.35;;;-0.10;99.90;;;;;;4936895;29;20028;-94
2023/02/07 00:25:04;;;;;;;16.35;7.30;;;-0.20;99.90;;;;;;4937741;29;20031;-95
2023/02/07 00:27:30;;;;;;;17.92;7.40;;;-0.20;99.90;;;;;;4936998;29;20028;-94
2023/02/07 00:29:56;;;;;;;18.20;7.03;;;-0.20;99.90;;;;;;4937297;29;20054;-95
2023/02/07 00:32:22;;;;;;;22.23;6.70;;;-0.20;99.90;;;;;;4936952;29;20046;-94
2023/02/07 00:34:49;;;;;;;17.77;7.03;;;-0.20;99.90;;;;;;4936598;29;20534;-93
2023/02/07 00:37:15;;;;;;;18.50;7.18;;;-0.30;99.90;;;;;;4936578;29;20079;-94
2023/02/07 00:39:41;;;;;;;19.30;7.35;;;-0.20;99.90;;;;;;4937416;29;20052;-92
2023/02/07 00:42:07;;;;;;;22.00;7.22;;;-0.30;99.90;;;;;;4936523;29;20055;-93
2023/02/07 00:44:32;;;;;;;16.70;6.70;;;-0.30;99.90;;;;;;4936226;29;20024;-93
2023/02/07 00:46:58;;;;;;;17.35;6.53;;;-0.30;99.90;;;;;;4936267;29;20035;-94
2023/02/07 00:49:24;;;;;;;15.48;6.45;;;-0.30;99.90;;;;;;4936023;29;20043;-93
2023/02/07 00:51:50;;;;;;;19.00;6.57;;;-0.40;99.90;;;;;;4936820;29;20462;-94
2023/02/07 00:54:16;;;;;;;16.85;6.43;;;-0.40;99.90;;;;;;4936514;29;20032;-94
2023/02/07 00:56:42;;;;;;;14.57;6.03;;;-0.40;99.90;;;;;;4936578;29;20024;-93
2023/02/07 00:59:08;;;;;;;21.17;7.43;;;-0.40;99.90;;;;;;4936746;29;20053;-93
2023/02/07 01:01:34;;;;;;;13.57;6.60;;;-0.40;99.90;;;;;;4935552;29;20462;-93
2023/02/07 01:03:59;;;;;;;18.77;6.80;;;-0.30;99.90;;;;;;4935332;29;20028;-92
2023/02/07 01:06:26;;;;;;;23.20;8.27;;;-0.30;99.90;;;;;;4936517;29;20504;-93
2023/02/07 01:09:00;;;;;;;23.52;8.35;;;-0.30;99.90;;;;;;4935146;29;20043;-92
2023/02/07 01:11:26;;;;;;;20.23;7.95;;;-0.30;99.90;;;;;;4935263;29;20023;-92
2023/02/07 01:13:52;;;;;;;23.40;9.50;;;-0.40;99.90;;;;;;4936109;29;20163;-91
2023/02/07 01:16:35;;;;;;;24.98;10.90;;;-0.40;99.90;;;;;;4936365;29;20079;-92
2023/02/07 01:19:09;;;;;;;28.80;9.82;;;-0.40;99.90;;;;;;4935064;29;20023;-91
2023/02/07 01:21:35;;;;;;;36.75;14.10;;;-0.50;99.90;;;;;;4935092;29;20023;-92
2023/02/07 01:24:01;;;;;;;34.20;14.23;;;-0.50;99.90;;;;;;4934920;29;20034;-91
2023/02/07 01:26:27;;;;;;;30.77;13.98;;;-0.50;99.90;;;;;;4932913;29;20612;-92
2023/02/07 01:28:54;;;;;;;31.02;11.27;;;-0.50;99.90;;;;;;4935900;29;20031;-92
2023/02/07 01:31:21;;;;;;;32.85;11.88;;;-0.50;99.90;;;;;;4936078;29;20020;-92
2023/02/07 01:33:47;;;;;;;29.17;11.55;;;-0.50;99.90;;;;;;4935355;29;20122;-92
2023/02/07 01:36:15;;;;;;;32.28;10.93;;;-0.40;99.90;;;;;;4936418;29;20035;-92
2023/02/07 01:38:41;;;;;;;32.30;13.02;;;-0.40;99.90;;;;;;4935175;29;20039;-92
2023/02/07 01:41:08;;;;;;;31.05;11.65;;;-0.30;99.90;;;;;;4934916;29;20015;-92
2023/02/07 01:43:34;;;;;;;38.35;12.25;;;-0.30;99.90;;;;;;4935490;29;20079;-91
2023/02/07 01:46:00;;;;;;;24.55;11.25;;;-0.30;99.90;;;;;;4935310;29;20019;-92
2023/02/07 01:48:33;;;;;;;35.30;13.70;;;-0.20;99.90;;;;;;4932498;29;20040;-92
2023/02/07 01:51:03;;;;;;;27.67;11.70;;;-0.20;99.90;;;;;;4934328;29;20028;-92
2023/02/07 01:53:29;;;;;;;41.65;15.35;;;-0.20;99.90;;;;;;4934026;29;20102;-93
2023/02/07 01:55:59;;;;;;;32.92;13.07;;;-0.20;99.90;;;;;;4933247;29;20031;-92
2023/02/07 01:58:26;;;;;;;36.90;13.30;;;-0.20;99.90;;;;;;4934276;29;20639;-92
2023/02/07 02:00:52;;;;;;;30.73;11.93;;;-0.20;99.90;;;;;;4934678;29;20111;-93
2023/02/07 02:03:17;;;;;;;40.13;13.80;;;-0.20;99.90;;;;;;4933822;29;20044;-92
2023/02/07 02:05:45;;;;;;;32.20;12.82;;;-0.10;99.90;;;;;;4934897;29;20148;-93
2023/02/07 02:08:10;;;;;;;35.92;12.63;;;-0.10;99.90;;;;;;4933685;29;20119;-92
2023/02/07 02:10:57;;;;;;;28.15;12.60;;;-0.10;99.90;;;;;;4934757;29;20118;-92
2023/02/07 02:13:52;;;;;;;32.83;12.10;;;-0.10;99.90;;;;;;4933093;29;20043;-92
2023/02/07 02:16:37;;;;;;;30.33;12.13;;;-0.10;99.90;;;;;;4933021;29;20102;-92
2023/02/07 02:19:40;;;;;;;30.08;12.05;;;-0.10;99.90;;;;;;4934430;29;20016;-91
2023/02/07 02:22:15;;;;;;;23.92;11.07;;;-0.10;99.90;;;;;;4935166;29;20026;-92
2023/02/07 02:24:43;;;;;;;24.23;10.88;;;-0.10;99.90;;;;;;4935124;29;20501;-90
2023/02/07 02:27:09;;;;;;;29.45;9.98;;;-0.10;99.90;;;;;;4935294;29;20106;-92
2023/02/07 02:30:05;;;;;;;25.35;10.43;;;0.00;99.90;;;;;;4934686;29;20716;-92
2023/02/07 02:32:49;;;;;;;27.13;9.38;;;0.00;99.90;;;;;;4936378;29;20067;-92
2023/02/07 02:35:31;;;;;;;19.52;9.57;;;0.00;99.90;;;;;;4948380;29;20043;-92
2023/02/07 02:38:27;;;;;;;23.85;9.57;;;0.00;99.90;;;;;;4933352;29;20034;-90
2023/02/07 02:41:21;;;;;;;24.67;9.23;;;0.10;99.90;;;;;;4932646;29;20059;-90
2023/02/07 02:44:07;;;;;;;23.20;9.57;;;0.10;99.90;;;;;;4933215;29;20036;-93
2023/02/07 02:46:36;;;;;;;24.10;9.75;;;0.10;99.90;;;;;;4932338;29;20027;-92
2023/02/07 02:49:03;;;;;;;21.48;9.80;;;0.10;99.90;;;;;;4933683;29;20054;-90
2023/02/07 02:51:29;;;;;;;24.65;9.07;;;0.10;99.90;;;;;;4935054;29;20024;-92
2023/02/07 02:53:57;;;;;;;20.40;8.55;;;0.10;99.90;;;;;;4934860;29;20043;-92
2023/02/07 02:56:59;;;;;;;24.40;8.43;;;0.10;99.90;;;;;;4934124;29;20028;-92
2023/02/07 02:59:49;;;;;;;21.77;8.55;;;0.10;99.90;;;;;;4935030;29;20027;-92
2023/02/07 03:03:03;;;;;;;24.08;8.30;;;0.10;99.90;;;;;;4934869;29;20609;-92
2023/02/07 03:05:40;;;;;;;17.90;6.65;;;0.10;99.90;;;;;;4939587;29;20060;-92
2023/02/07 03:08:17;;;;;;;20.38;7.70;;;0.20;99.90;;;;;;4945403;29;20393;-93
2023/02/07 03:10:58;;;;;;;21.23;9.00;;;0.20;99.90;;;;;;4946511;29;20118;-92
2023/02/07 03:13:29;;;;;;;22.50;9.95;;;0.20;99.90;;;;;;4943182;29;20032;-91
2023/02/07 03:16:06;;;;;;;17.13;7.30;;;0.30;99.90;;;;;;4941684;29;20030;-92
2023/02/07 03:19:01;;;;;;;21.77;8.25;;;0.30;99.90;;;;;;4939141;29;20037;-92
2023/02/07 03:21:36;;;;;;;17.45;8.65;;;0.30;99.90;;;;;;4935703;29;20032;-91
2023/02/07 03:24:06;;;;;;;17.02;7.93;;;0.30;99.90;;;;;;4937405;29;20036;-92
2023/02/07 03:26:33;;;;;;;22.48;8.02;;;0.20;99.90;;;;;;4939028;29;20028;-92
2023/02/07 03:29:01;;;;;;;22.35;9.32;;;0.30;99.90;;;;;;4937507;29;20047;-91
2023/02/07 03:31:29;;;;;;;15.93;7.75;;;0.20;99.90;;;;;;4937383;29;20047;-92
2023/02/07 03:34:02;;;;;;;24.83;9.68;;;0.20;99.90;;;;;;4938501;29;20020;-93
2023/02/07 03:36:58;;;;;;;22.15;7.57;;;0.20;99.90;;;;;;4936950;29;20028;-92
2023/02/07 03:39:24;;;;;;;23.15;8.23;;;0.30;99.90;;;;;;4940327;29;20031;-92
2023/02/07 03:41:56;;;;;;;19.25;8.50;;;0.30;99.90;;;;;;4938387;29;20028;-91
2023/02/07 03:44:24;;;;;;;23.35;9.25;;;0.30;99.90;;;;;;4936876;29;20577;-90
2023/02/07 03:46:50;;;;;;;20.35;7.82;;;0.30;99.90;;;;;;4936424;29;20031;-92
2023/02/07 03:49:16;;;;;;;31.83;9.18;;;0.30;99.90;;;;;;4937415;29;20036;-91
2023/02/07 03:51:46;;;;;;;19.90;8.48;;;0.40;99.90;;;;;;4936684;29;20043;-93
2023/02/07 03:54:12;;;;;;;18.90;8.25;;;0.40;99.90;;;;;;4936682;29;20023;-92
2023/02/07 03:56:38;;;;;;;24.20;8.02;;;0.40;99.90;;;;;;4936344;29;20028;-91
2023/02/07 03:59:03;;;;;;;18.85;8.35;;;0.50;99.90;;;;;;4937509;29;20036;-92
2023/02/07 04:01:29;;;;;;;24.10;9.00;;;0.50;99.90;;;;;;4937673;29;20052;-92
2023/02/07 04:03:55;;;;;;;27.55;8.73;;;0.50;99.90;;;;;;4936169;29;20111;-92
2023/02/07 04:06:21;;;;;;;27.83;9.77;;;0.50;99.90;;;;;;4936262;29;20023;-92
2023/02/07 04:08:47;;;;;;;27.08;9.10;;;0.50;99.90;;;;;;4934734;29;20046;-92
2023/02/07 04:11:12;;;;;;;17.50;8.95;;;0.50;99.90;;;;;;4936250;29;20027;-92
2023/02/07 04:13:38;;;;;;;21.08;8.45;;;0.40;99.90;;;;;;4937367;29;20031;-91
2023/02/07 04:16:05;;;;;;;24.13;9.18;;;0.50;99.90;;;;;;4935121;29;20123;-93
2023/02/07 04:18:31;;;;;;;23.58;8.73;;;0.50;99.90;;;;;;4936003;29;20032;-91
2023/02/07 04:21:04;;;;;;;22.85;9.30;;;0.50;99.90;;;;;;4937044;29;20035;-92
2023/02/07 04:23:30;;;;;;;22.02;7.78;;;0.50;99.90;;;;;;4933678;29;20032;-91
2023/02/07 04:25:58;;;;;;;23.15;9.32;;;0.50;99.90;;;;;;4935826;29;20031;-91
2023/02/07 04:28:24;;;;;;;18.30;7.82;;;0.60;99.90;;;;;;4935873;29;20040;-91
2023/02/07 04:30:50;;;;;;;21.25;9.35;;;0.60;99.90;;;;;;4935906;29;20113;-92
2023/02/07 04:33:16;;;;;;;24.45;8.18;;;0.60;99.90;;;;;;4936837;29;20114;-92
2023/02/07 04:35:42;;;;;;;24.25;7.90;;;0.60;99.90;;;;;;4935944;29;20036;-92
2023/02/07 04:38:08;;;;;;;25.42;8.57;;;0.60;99.90;;;;;;4934399;29;20027;-92
2023/02/07 04:40:33;;;;;;;21.00;8.07;;;0.70;99.90;;;;;;4938191;29;20572;-92
2023/02/07 04:42:59;;;;;;;19.73;8.15;;;0.70;99.90;;;;;;4943058;29;20051;-92
2023/02/07 04:45:24;;;;;;;23.05;8.02;;;0.70;99.90;;;;;;4940638;29;20393;-93
2023/02/07 04:47:50;;;;;;;21.45;8.77;;;0.70;99.90;;;;;;4936826;29;20030;-91
2023/02/07 04:50:16;;;;;;;23.10;8.82;;;0.70;99.90;;;;;;4935641;29;20499;-93
2023/02/07 04:52:42;;;;;;;14.88;7.55;;;0.70;99.90;;;;;;4935292;29;20032;-92
2023/02/07 04:55:09;;;;;;;22.30;8.82;;;0.70;99.90;;;;;;4935145;29;20046;-92
2023/02/07 04:57:35;;;;;;;19.42;8.13;;;0.70;99.90;;;;;;4936264;29;20024;-91
2023/02/07 05:00:01;;;;;;;22.00;9.32;;;0.70;99.90;;;;;;4935579;29;20493;-91
2023/02/07 05:02:26;;;;;;;23.00;10.13;;;0.70;99.90;;;;;;4936144;29;20042;-92
2023/02/07 05:04:52;;;;;;;20.20;7.97;;;0.70;99.90;;;;;;4935277;29;20024;-91
2023/02/07 05:07:18;;;;;;;20.48;8.43;;;0.80;99.90;;;;;;4935540;29;20078;-91
2023/02/07 05:09:43;;;;;;;18.48;8.90;;;0.80;99.90;;;;;;4935318;29;20039;-93
2023/02/07 05:12:09;;;;;;;30.90;9.57;;;0.80;99.90;;;;;;4935372;29;20046;-92
2023/02/07 05:14:35;;;;;;;23.77;9.27;;;0.90;99.90;;;;;;4936325;29;20027;-90
2023/02/07 05:17:00;;;;;;;19.20;8.32;;;0.90;99.90;;;;;;4935870;29;20480;-92
2023/02/07 05:19:26;;;;;;;17.98;8.32;;;0.90;99.90;;;;;;4935436;29;20027;-92
2023/02/07 05:21:52;;;;;;;16.65;7.47;;;1.00;99.90;;;;;;4936831;29;20051;-92
2023/02/07 05:24:18;;;;;;;26.42;9.65;;;1.00;99.90;;;;;;4936333;29;20038;-92
2023/02/07 05:26:43;;;;;;;21.40;9.57;;;0.90;99.90;;;;;;4935928;29;20039;-91
2023/02/07 05:29:09;;;;;;;17.15;8.40;;;0.90;99.90;;;;;;4934990;29;20042;-92
2023/02/07 05:34:20;;;;;;;23.00;8.88;;;1.00;99.90;;;;;;4935169;29;20579;-93
2023/02/07 05:36:45;;;;;;;22.13;8.75;;;0.90;99.90;;;;;;4935085;29;20023;-92
2023/02/07 05:39:11;;;;;;;21.73;9.32;;;1.00;99.90;;;;;;4936152;29;20027;-92
2023/02/07 05:41:37;;;;;;;21.60;8.80;;;0.90;99.90;;;;;;4935250;29;20066;-92
2023/02/07 05:44:03;;;;;;;21.83;8.60;;;1.00;99.90;;;;;;4935878;29;20086;-92
2023/02/07 05:46:28;;;;;;;19.92;8.43;;;1.00;99.90;;;;;;4935025;29;20075;-93
2023/02/07 05:48:54;;;;;;;25.63;8.90;;;1.00;99.90;;;;;;4935784;29;20035;-91
2023/02/07 05:51:19;;;;;;;23.40;10.00;;;1.00;99.90;;;;;;4934789;29;20027;-92
2023/02/07 05:53:45;;;;;;;19.00;8.45;;;1.00;99.90;;;;;;4935926;29;20027;-92
2023/02/07 05:56:12;;;;;;;17.92;8.20;;;1.00;99.90;;;;;;4936099;29;20031;-94
2023/02/07 05:58:38;;;;;;;24.35;8.13;;;1.10;99.90;;;;;;4934403;29;20494;-93
2023/02/07 06:01:03;;;;;;;21.38;9.02;;;1.10;99.90;;;;;;4934626;29;20027;-93
2023/02/07 06:03:29;;;;;;;25.70;8.13;;;1.10;99.90;;;;;;4935320;29;20446;-93
2023/02/07 06:05:55;;;;;;;24.42;8.98;;;1.10;99.90;;;;;;4934978;29;20031;-92
2023/02/07 06:08:21;;;;;;;20.58;9.40;;;1.00;99.90;;;;;;4934617;29;20481;-93
2023/02/07 06:10:49;;;;;;;22.35;8.98;;;1.10;99.90;;;;;;4935658;29;20023;-93
2023/02/07 06:13:15;;;;;;;19.20;9.68;;;1.10;99.90;;;;;;4934479;29;20112;-91
2023/02/07 06:15:40;;;;;;;22.05;9.60;;;1.00;99.90;;;;;;4934554;29;20119;-91
2023/02/07 06:18:06;;;;;;;30.00;9.60;;;1.10;99.90;;;;;;4935630;29;20027;-91
2023/02/07 06:20:32;;;;;;;21.73;8.57;;;1.10;99.90;;;;;;4935934;29;20023;-92
2023/02/07 06:22:57;;;;;;;22.02;8.75;;;1.00;99.90;;;;;;4934894;29;20493;-92
2023/02/07 06:25:23;;;;;;;22.10;10.63;;;1.10;99.90;;;;;;4935046;29;20035;-92
2023/02/07 06:27:49;;;;;;;27.48;10.50;;;1.10;99.90;;;;;;4941926;29;20486;-92
2023/02/07 06:30:14;;;;;;;25.90;9.82;;;1.10;99.90;;;;;;4943429;29;20036;-92
2023/02/07 06:32:40;;;;;;;24.55;10.13;;;1.10;99.90;;;;;;4942504;29;20598;-93
2023/02/07 06:35:06;;;;;;;23.85;10.10;;;1.00;99.90;;;;;;4942138;29;20035;-92
2023/02/07 06:37:32;;;;;;;25.58;9.88;;;1.10;99.90;;;;;;4937729;29;20027;-93
2023/02/07 06:39:58;;;;;;;23.52;10.00;;;1.10;99.90;;;;;;4940715;29;20024;-91
2023/02/07 06:42:24;;;;;;;26.10;9.73;;;1.10;99.90;;;;;;4939875;29;20051;-91
2023/02/07 06:44:50;;;;;;;23.17;11.05;;;1.10;99.90;;;;;;4940280;29;20102;-92
2023/02/07 06:47:18;;;;;;;24.65;9.18;;;1.00;99.90;;;;;;4938863;29;20026;-91
2023/02/07 06:49:44;;;;;;;24.58;10.35;;;1.00;99.90;;;;;;4938992;29;20446;-91
2023/02/07 06:52:09;;;;;;;25.33;9.95;;;1.00;99.90;;;;;;4938772;29;20082;-89
2023/02/07 06:54:35;;;;;;;22.42;8.52;;;1.00;99.90;;;;;;4938704;29;20089;-90
2023/02/07 06:57:01;;;;;;;28.05;10.07;;;1.00;99.90;;;;;;4937426;29;20020;-90
2023/02/07 06:59:27;;;;;;;23.48;10.82;;;1.00;99.90;;;;;;4938228;29;20020;-90
2023/02/07 07:01:52;;;;;;;26.83;9.90;;;1.00;99.90;;;;;;4938512;29;21373;-91
2023/02/07 07:04:18;;;;;;;28.40;9.85;;;1.00;99.90;;;;;;4937408;29;20039;-91
2023/02/07 07:06:44;;;;;;;24.85;9.82;;;1.00;99.90;;;;;;4938324;29;20055;-91
2023/02/07 07:09:11;;;;;;;25.48;10.45;;;1.10;99.90;;;;;;4937598;29;20044;-91
2023/02/07 07:11:41;;;;;;;26.70;10.40;;;1.10;99.90;;;;;;4937380;29;20052;-92
2023/02/07 07:14:12;;;;;;;21.98;9.88;;;1.10;99.90;;;;;;4937620;29;20027;-91
2023/02/07 07:16:39;;;;;;;23.05;10.98;;;1.10;99.90;;;;;;4935610;29;20518;-92
2023/02/07 07:19:06;;;;;;;26.35;10.00;;;1.10;99.90;;;;;;4938397;29;20067;-92
2023/02/07 07:21:32;;;;;;;22.55;9.98;;;1.20;99.90;;;;;;4936899;29;20020;-91
2023/02/07 07:23:57;;;;;;;21.58;9.50;;;1.20;99.90;;;;;;4936624;29;20090;-91
2023/02/07 07:26:23;;;;;;;27.20;10.65;;;1.20;99.90;;;;;;4939069;29;20027;-89
2023/02/07 07:28:49;;;;;;;19.38;9.10;;;1.20;99.90;;;;;;4936756;29;20119;-91
2023/02/07 07:31:17;;;;;;;25.50;10.15;;;1.20;99.90;;;;;;4937333;29;20032;-92
2023/02/07 07:33:43;;;;;;;26.88;10.35;;;1.20;99.90;;;;;;4936227;29;20537;-90
2023/02/07 07:36:09;;;;;;;31.20;13.20;;;1.20;99.90;;;;;;4936007;29;20039;-90
2023/02/07 07:38:35;;;;;;;24.27;10.73;;;1.20;99.90;;;;;;4936249;29;20035;-92
2023/02/07 07:41:00;;;;;;;24.55;9.27;;;1.10;99.90;;;;;;4937618;29;20107;-91
2023/02/07 07:43:26;;;;;;;21.13;9.88;;;1.10;99.90;;;;;;4936171;29;20481;-91
2023/02/07 07:45:58;;;;;;;19.63;8.32;;;1.10;99.90;;;;;;4937847;29;20110;-91
2023/02/07 07:48:25;;;;;;;15.48;8.38;;;1.10;99.90;;;;;;4937495;29;20040;-91
2023/02/07 07:50:58;;;;;;;32.22;9.38;;;1.10;99.90;;;;;;4936006;29;20036;-92
2023/02/07 07:53:27;;;;;;;22.77;9.73;;;1.20;99.90;;;;;;4937276;29;20019;-91
2023/02/07 07:55:55;;;;;;;68.05;30.55;;;1.20;99.90;;;;;;4937376;29;20024;-91
2023/02/07 07:58:22;;;;;;;32.17;12.60;;;1.20;99.90;;;;;;4937526;29;20047;-91
2023/02/07 08:00:48;;;;;;;30.80;12.18;;;1.20;99.90;;;;;;4946166;29;20035;-91
2023/02/07 08:03:18;;;;;;;28.55;11.20;;;1.20;99.90;;;;;;4949575;29;20028;-92
2023/02/07 08:05:44;;;;;;;32.08;12.90;;;1.20;99.90;;;;;;4943356;29;20407;-91
2023/02/07 08:08:14;;;;;;;25.05;11.43;;;1.20;99.90;;;;;;4938222;29;20046;-92
2023/02/07 08:10:40;;;;;;;25.80;11.57;;;1.20;99.90;;;;;;4939170;29;20568;-91
2023/02/07 08:13:07;;;;;;;19.92;9.93;;;1.20;99.90;;;;;;4937329;29;20050;-92
2023/02/07 08:15:36;;;;;;;33.45;14.02;;;1.20;99.90;;;;;;4940514;29;20067;-93
2023/02/07 08:18:07;;;;;;;23.25;11.55;;;1.20;99.90;;;;;;4954575;29;20039;-92
2023/02/07 08:20:33;;;;;;;27.33;11.13;;;1.20;99.90;;;;;;4955982;29;20024;-92
2023/02/07 08:26:02;;;;;;;25.05;11.10;;;1.30;99.90;;;;;;4954187;29;20018;-93
2023/02/07 08:28:30;;;;;;;30.85;11.43;;;1.30;99.90;;;;;;4950696;29;20042;-93
2023/02/07 08:31:54;;;;;;;27.13;10.50;;;1.20;99.90;;;;;;4955693;29;20260;-93
2023/02/07 08:34:25;;;;;;;23.48;10.77;;;1.20;99.90;;;;;;4955570;29;20051;-92
2023/02/07 08:36:51;;;;;;;18.08;7.95;;;1.20;99.90;;;;;;4956316;28;20024;-92
2023/02/07 08:39:17;;;;;;;22.42;9.23;;;1.20;99.90;;;;;;4945197;29;20031;-94
2023/02/07 08:42:27;;;;;;;18.33;9.48;;;1.20;99.90;;;;;;4943671;29;20024;-93
2023/02/07 08:44:53;;;;;;;20.45;8.75;;;1.20;99.90;;;;;;4940671;29;20056;-94
2023/02/07 08:47:19;;;;;;;17.25;8.20;;;1.20;99.90;;;;;;4940790;29;20038;-94
2023/02/07 08:49:47;;;;;;;18.35;8.40;;;1.20;99.90;;;;;;4939726;29;20035;-95
2023/02/07 08:52:13;;;;;;;17.48;8.50;;;1.20;99.90;;;;;;4940809;29;20023;-93
2023/02/07 08:54:39;;;;;;;19.80;8.23;;;1.20;99.90;;;;;;4942574;29;20068;-95
2023/02/07 08:57:08;;;;;;;26.63;8.90;;;1.20;99.90;;;;;;4942134;29;20020;-93
2023/02/07 08:59:40;;;;;;;14.13;8.10;;;1.30;99.90;;;;;;4942180;29;20043;-95
2023/02/07 09:02:11;;;;;;;23.83;9.18;;;1.30;99.90;;;;;;4952798;28;20031;-95
2023/02/07 09:04:42;;;;;;;31.17;11.35;;;1.30;99.90;;;;;;4957780;28;20040;-92
2023/02/07 09:07:10;;;;;;;28.15;12.05;;;1.30;99.90;;;;;;4961246;28;20028;-91
2023/02/07 09:09:51;;;;;;;26.25;10.48;;;1.30;99.90;;;;;;4961016;28;20102;-90
2023/02/07 09:12:24;;;;;;;26.95;12.20;;;1.40;99.90;;;;;;4961177;28;20044;-91
2023/02/07 09:15:11;;;;;;;34.45;12.07;;;1.50;99.90;;;;;;4961038;28;20020;-92
2023/02/07 09:17:37;;;;;;;23.85;11.13;;;1.50;99.90;;;;;;4960328;28;20044;-88
2023/02/07 09:20:21;;;;;;;25.40;11.77;;;1.50;99.90;;;;;;4960654;28;20020;-89
2023/02/07 09:25:52;;;;;;;30.67;11.45;;;1.70;99.90;;;;;;4961431;28;20023;-91
2023/02/07 09:28:25;;;;;;;31.10;11.70;;;1.70;99.90;;;;;;4960692;28;20079;-91
2023/02/07 09:30:53;;;;;;;29.20;12.05;;;1.80;99.90;;;;;;4961796;28;20024;-90
2023/02/07 09:33:22;;;;;;;22.35;10.25;;;1.90;99.90;;;;;;4945123;28;20100;-90
2023/02/07 09:35:48;;;;;;;22.85;11.10;;;2.00;99.90;;;;;;4960913;28;20028;-92
2023/02/07 09:38:27;;;;;;;23.33;10.27;;;2.10;99.90;;;;;;4961141;28;20032;-90
2023/02/07 09:40:55;;;;;;;26.27;11.90;;;2.30;99.90;;;;;;4960576;28;20051;-91
2023/02/07 09:43:22;;;;;;;26.40;11.75;;;2.50;99.90;;;;;;4960669;28;20038;-88
2023/02/07 09:45:55;;;;;;;34.53;11.85;;;2.80;99.90;;;;;;4961257;28;20016;-88
2023/02/07 09:48:26;;;;;;;22.67;11.18;;;3.00;99.90;;;;;;4960435;28;20023;-90
2023/02/07 09:50:55;;;;;;;28.90;9.95;;;3.20;99.90;;;;;;4961102;28;20020;-90
2023/02/07 09:53:54;;;;;;;27.67;11.43;;;3.50;99.90;;;;;;4960579;28;20052;-90
2023/02/07 09:56:26;;;;;;;36.38;11.38;;;3.80;99.90;;;;;;4960310;28;20060;-93
2023/02/07 09:59:18;;;;;;;21.90;10.45;;;4.20;99.90;;;;;;4961044;28;20048;-89
2023/02/07 10:01:47;;;;;;;25.60;9.55;;;4.50;99.90;;;;;;4961008;28;20028;-89
2023/02/07 10:04:28;;;;;;;24.08;9.68;;;4.90;99.90;;;;;;4960625;28;20018;-89
2023/02/07 10:06:56;;;;;;;33.97;11.02;;;5.20;99.90;;;;;;4961151;28;20036;-89
2023/02/07 10:09:31;;;;;;;24.50;10.30;;;5.50;99.90;;;;;;4960430;28;20040;-90
2023/02/07 10:12:06;;;;;;;31.98;10.70;;;5.80;99.90;;;;;;4961095;28;20067;-91
2023/02/07 10:14:50;;;;;;;22.15;9.75;;;6.10;99.90;;;;;;4960352;28;20031;-87
2023/02/07 10:17:34;;;;;;;25.55;9.65;;;6.40;99.90;;;;;;4960252;28;20028;-89
2023/02/07 10:20:31;;;;;;;19.25;10.13;;;6.70;99.90;;;;;;4961042;28;20015;-90
2023/02/07 10:23:19;;;;;;;23.80;10.60;;;6.90;99.90;;;;;;4960386;28;20024;-90
2023/02/07 10:26:14;;;;;;;23.08;9.48;;;7.20;99.90;;;;;;4960089;28;20012;-87
2023/02/07 10:29:34;;;;;;;24.42;9.75;;;7.50;99.90;;;;;;4960772;28;20024;-90
2023/02/07 10:32:09;;;;;;;24.98;9.60;;;7.80;99.90;;;;;;4963131;28;20034;-89
2023/02/07 10:34:38;;;;;;;21.05;10.02;;;8.10;99.90;;;;;;4979115;28;20027;-88
2023/02/07 10:37:19;;;;;;;17.30;8.80;;;8.40;99.90;;;;;;4979184;28;20023;-90
2023/02/07 10:40:05;;;;;;;18.02;8.20;;;8.60;99.90;;;;;;4963104;28;20025;-88
2023/02/07 10:42:36;;;;;;;27.55;9.60;;;8.90;99.90;;;;;;4963191;28;20012;-87
2023/02/07 10:45:03;;;;;;;25.67;9.35;;;9.10;99.90;;;;;;4979298;28;20020;-90
2023/02/07 10:47:31;;;;;;;25.60;9.75;;;9.30;99.90;;;;;;4979153;28;20015;-88
2023/02/07 10:49:59;;;;;;;21.45;8.85;;;9.50;99.90;;;;;;4979191;28;20079;-87
2023/02/07 10:52:41;;;;;;;21.70;8.43;;;9.80;99.90;;;;;;4979016;28;20020;-90
2023/02/07 10:55:09;;;;;;;26.08;8.70;;;10.00;99.90;;;;;;4978804;28;20027;-89
2023/02/07 10:57:38;;;;;;;22.85;7.75;;;10.30;99.90;;;;;;4962840;28;20080;-87
2023/02/07 11:00:07;;;;;;;19.45;8.38;;;10.50;99.90;;;;;;4978962;28;20035;-88
2023/02/07 11:02:41;;;;;;;27.27;8.80;;;10.70;99.90;;;;;;4962804;28;20042;-89
2023/02/07 11:05:16;;;;;;;16.17;8.30;;;10.70;99.90;;;;;;4959839;28;20027;-89
2023/02/07 11:08:00;;;;;;;23.58;8.30;;;10.90;99.60;;;;;;4959982;28;20030;-87
2023/02/07 11:10:34;;;;;;;18.85;6.97;;;11.10;98.70;;;;;;4960168;28;20087;-87
2023/02/07 11:13:00;;;;;;;20.45;7.55;;;11.20;96.70;;;;;;4960575;28;20012;-87
2023/02/07 11:15:45;;;;;;;20.00;7.93;;;11.20;95.70;;;;;;4959987;28;20019;-89
2023/02/07 11:18:39;;;;;;;22.75;7.50;;;11.30;95.10;;;;;;4960534;28;20028;-86
2023/02/07 11:21:27;;;;;;;21.70;8.73;;;11.50;94.90;;;;;;4959712;28;20016;-87
2023/02/07 11:23:56;;;;;;;23.77;9.07;;;11.60;94.30;;;;;;4959752;28;20016;-87
2023/02/07 11:26:23;;;;;;;23.10;6.40;;;11.80;94.00;;;;;;4962902;28;20015;-89
2023/02/07 11:29:15;;;;;;;27.52;7.65;;;12.00;93.40;;;;;;4963812;28;20028;-90
2023/02/07 11:31:43;;;;;;;18.20;5.82;;;12.10;92.80;;;;;;4963634;28;20023;-87
2023/02/07 11:34:44;;;;;;;13.85;5.97;;;12.40;92.50;;;;;;4947138;28;20028;-88
2023/02/07 11:37:20;;;;;;;14.88;5.68;;;12.80;91.40;;;;;;4963096;28;20032;-91
2023/02/07 11:39:50;;;;;;;13.85;6.18;;;13.10;90.60;;;;;;4963718;28;20024;-88
2023/02/07 11:42:29;;;;;;;23.33;6.40;;;13.40;90.10;;;;;;4947698;28;20112;-89
2023/02/07 11:44:54;;;;;;;21.92;5.55;;;13.60;88.30;;;;;;4962158;28;20036;-93
2023/02/07 11:47:27;;;;;;;21.80;5.88;;;13.80;87.20;;;;;;4963333;28;20031;-89
2023/02/07 11:50:01;;;;;;;20.52;4.88;;;13.90;85.80;;;;;;4963522;28;20027;-88
2023/02/07 11:52:29;;;;;;;22.30;5.30;;;14.10;84.80;;;;;;4963320;28;20019;-87
2023/02/07 11:55:01;;;;;;;14.40;4.90;;;14.30;84.00;;;;;;4962902;28;20016;-87
2023/02/07 11:57:31;;;;;;;21.50;4.97;;;14.60;83.30;;;;;;4962683;28;20046;-89
2023/02/07 12:00:00;;;;;;;20.17;6.32;;;14.80;82.10;;;;;;4962819;28;20019;-87
2023/02/07 12:02:29;;;;;;;17.73;5.20;;;15.00;81.30;;;;;;4962674;28;20019;-89
2023/02/07 12:05:17;;;;;;;15.23;4.60;;;15.10;80.60;;;;;;4962545;28;20043;-86
2023/02/07 12:07:48;;;;;;;24.00;4.75;;;15.30;79.50;;;;;;4948099;28;20040;-87
2023/02/07 12:10:22;;;;;;;19.55;4.95;;;15.60;78.90;;;;;;4962984;28;20043;-88
2023/02/07 12:13:05;;;;;;;16.70;4.15;;;15.80;77.60;;;;;;4962270;28;20019;-89
2023/02/07 12:15:46;;;;;;;16.20;4.38;;;16.00;76.50;;;;;;4962266;28;20027;-89
2023/02/07 12:18:15;;;;;;;;;;;16.10;76.20;;;;;;4963247;28;20028;-88
2023/02/07 12:20:45;;;;;;;20.23;4.88;;;16.30;75.90;;;;;;4962149;28;19992;-90
2023/02/07 12:23:32;;;;;;;21.65;5.75;;;16.30;74.80;;;;;;4962169;28;20035;-87
2023/02/07 12:26:04;;;;;;;18.80;4.38;;;16.30;73.70;;;;;;4962538;28;20020;-89
2023/02/07 12:28:58;;;;;;;18.98;5.20;;;16.50;73.40;;;;;;4962574;28;20083;-88
2023/02/07 12:31:38;;;;;;;19.90;4.57;;;16.70;72.90;;;;;;4962042;28;20260;-88
2023/02/07 12:34:10;;;;;;;;;;;16.70;72.00;;;;;;4962746;28;20039;-86
2023/02/07 12:36:48;;;;;;;18.15;4.18;;;16.80;71.60;;;;;;4961879;28;19928;-86
2023/02/07 12:39:36;;;;;;;20.00;4.57;;;16.90;71.30;;;;;;4962045;28;20100;-87
2023/02/07 12:42:26;;;;;;;20.15;5.22;;;17.20;70.60;;;;;;4961870;28;20030;-88
2023/02/07 12:44:56;;;;;;;13.98;3.83;;;17.40;69.50;;;;;;4962256;28;20016;-91
2023/02/07 12:47:53;;;;;;;15.80;4.18;;;17.40;68.60;;;;;;4961914;28;20079;-90
2023/02/07 12:50:19;;;;;;;18.92;4.18;;;17.40;68.40;;;;;;4961662;28;20034;-87
2023/02/07 12:53:22;;;;;;;19.02;4.50;;;17.60;68.40;;;;;;4961844;28;20019;-88
2023/02/07 12:56:25;;;;;;;15.35;3.80;;;17.60;67.60;;;;;;4962067;28;20011;-88
2023/02/07 12:59:29;;;;;;;18.55;4.00;;;17.60;67.10;;;;;;4961867;28;20031;-88
2023/02/07 13:02:28;;;;;;;13.57;4.82;;;17.50;67.20;;;;;;4961841;28;20042;-91
2023/02/07 13:05:02;;;;;;;13.25;3.83;;;17.50;67.30;;;;;;4961868;28;20036;-89
2023/02/07 13:07:47;;;;;;;16.92;3.60;;;17.60;66.90;;;;;;4961255;28;20043;-89
2023/02/07 13:10:22;;;;;;;11.63;3.90;;;17.80;67.30;;;;;;4961435;28;20079;-88
2023/02/07 13:13:15;;;;;;;15.30;3.40;;;18.00;66.20;;;;;;4961713;28;20064;-88